createdAt,value
2023-04-07T00:01:58.474Z,58.90
2023-04-07T00:04:01.472Z,59.30
2023-04-07T00:06:04.587Z,59.40
2023-04-07T00:08:07.669Z,59.30
2023-04-07T00:10:12.101Z,59.30
2023-04-07T00:12:14.800Z,59.50
2023-04-07T00:14:17.533Z,59.10
2023-04-07T00:16:20.428Z,59.10
2023-04-07T00:18:23.549Z,59.00
2023-04-07T00:20:26.446Z,59.10
2023-04-07T00:22:29.434Z,59.40
2023-04-07T00:24:34.868Z,59.50
2023-04-07T00:26:39.128Z,59.30
2023-04-07T00:28:41.869Z,59.50
2023-04-07T00:30:44.586Z,59.40
2023-04-07T00:32:47.335Z,59.50
2023-04-07T00:34:50.103Z,59.40
2023-04-07T00:36:52.868Z,59.40
2023-04-07T00:38:55.829Z,59.30
2023-04-07T00:40:59.762Z,59.40
2023-04-07T00:43:03.824Z,59.40
2023-04-07T00:45:07.433Z,59.30
2023-04-07T00:47:10.490Z,59.10
2023-04-07T00:49:13.658Z,59.10
2023-04-07T00:51:17.273Z,59.40
2023-04-07T00:53:21.080Z,59.90
2023-04-07T00:55:23.959Z,59.90
2023-04-07T00:57:27.341Z,60.00
2023-04-07T00:59:32.399Z,60.10
2023-04-07T01:01:45.420Z,60.60
2023-04-07T01:03:55.103Z,60.50
2023-04-07T01:06:01.948Z,60.20
2023-04-07T01:08:11.991Z,60.40
2023-04-07T01:10:21.797Z,61.00
2023-04-07T01:12:31.696Z,61.10
2023-04-07T01:14:42.226Z,61.20
2023-04-07T01:16:49.884Z,61.20
2023-04-07T01:18:56.633Z,61.10
2023-04-07T01:21:11.900Z,61.30
2023-04-07T01:23:22.748Z,61.00
2023-04-07T01:25:51.385Z,60.80
2023-04-07T01:28:09.546Z,61.20
2023-04-07T01:30:16.719Z,61.40
2023-04-07T01:32:21.489Z,61.40
2023-04-07T01:34:26.754Z,61.30
2023-04-07T01:36:32.092Z,61.10
2023-04-07T01:38:35.576Z,61.10
2023-04-07T01:40:40.352Z,60.80
2023-04-07T01:42:44.104Z,60.80
2023-04-07T01:44:47.358Z,60.70
2023-04-07T01:46:52.084Z,60.30
2023-04-07T01:48:55.624Z,60.60
2023-04-07T01:50:59.683Z,61.00
2023-04-07T01:53:04.570Z,61.20
2023-04-07T01:55:09.682Z,61.10
2023-04-07T01:57:12.544Z,61.20
2023-04-07T01:59:15.498Z,60.90
2023-04-07T02:01:18.339Z,60.70
2023-04-07T02:03:27.657Z,60.60
2023-04-07T02:05:31.912Z,60.50
2023-04-07T02:07:42.048Z,60.50
2023-04-07T02:09:45.818Z,60.50
2023-04-07T02:11:49.635Z,60.70
2023-04-07T02:13:54.785Z,60.80
2023-04-07T02:15:58.924Z,61.00
2023-04-07T02:18:05.669Z,61.30
2023-04-07T02:20:12.835Z,61.90
2023-04-07T02:22:17.268Z,62.00
2023-04-07T02:24:22.229Z,61.90
2023-04-07T02:26:24.951Z,62.10
2023-04-07T02:28:27.858Z,62.50
2023-04-07T02:30:30.916Z,62.20
2023-04-07T02:32:33.740Z,62.10
2023-04-07T02:34:36.867Z,62.20
2023-04-07T02:36:40.995Z,62.30
2023-04-07T02:38:43.818Z,62.40
2023-04-07T02:40:46.692Z,62.30
2023-04-07T02:42:49.557Z,62.30
2023-04-07T02:44:52.294Z,62.00
2023-04-07T02:46:54.998Z,62.20
2023-04-07T02:48:57.800Z,62.10
2023-04-07T02:51:00.783Z,62.40
2023-04-07T02:53:04.915Z,62.40
2023-04-07T02:55:08.728Z,62.10
2023-04-07T02:57:11.512Z,62.40
2023-04-07T02:59:14.258Z,62.50
2023-04-07T03:01:17.051Z,62.60
2023-04-07T03:03:20.117Z,62.40
2023-04-07T03:05:23.242Z,62.70
2023-04-07T03:07:26.287Z,63.10
2023-04-07T03:09:30.565Z,63.00
2023-04-07T03:11:33.337Z,63.00
2023-04-07T03:13:36.231Z,63.00
2023-04-07T03:15:38.997Z,62.80
2023-04-07T03:17:42.040Z,62.50
2023-04-07T03:19:47.014Z,62.20
2023-04-07T03:21:49.842Z,62.20
2023-04-07T03:23:52.807Z,62.30
2023-04-07T03:25:58.325Z,62.30
2023-04-07T03:28:02.336Z,62.10
2023-04-07T03:30:06.042Z,62.00
2023-04-07T03:32:08.781Z,62.20
2023-04-07T03:34:11.515Z,62.40
2023-04-07T03:36:14.395Z,62.30
2023-04-07T03:38:17.179Z,62.20
2023-04-07T03:40:20.227Z,62.10
2023-04-07T03:42:24.284Z,62.00
2023-04-07T03:44:27.022Z,61.80
2023-04-07T03:46:29.798Z,61.80
2023-04-07T03:48:32.625Z,61.80
2023-04-07T03:50:35.396Z,62.10
2023-04-07T03:52:38.202Z,62.30
2023-04-07T03:54:41.593Z,62.10
2023-04-07T03:56:44.322Z,61.90
2023-04-07T03:58:49.315Z,62.20
2023-04-07T04:00:52.112Z,62.60
2023-04-07T04:02:54.970Z,62.30
2023-04-07T04:04:57.841Z,62.10
2023-04-07T04:07:00.957Z,62.20
2023-04-07T04:09:03.744Z,62.60
2023-04-07T04:11:05.620Z,63.00
2023-04-07T04:13:08.324Z,63.30
2023-04-07T04:15:12.692Z,63.20
2023-04-07T04:17:15.441Z,63.20
2023-04-07T04:19:18.187Z,63.30
2023-04-07T04:21:20.985Z,63.30
2023-04-07T04:23:23.714Z,63.00
2023-04-07T04:25:26.542Z,63.00
2023-04-07T04:27:29.420Z,63.10
2023-04-07T04:29:33.054Z,63.20
2023-04-07T04:31:37.293Z,63.20
2023-04-07T04:33:40.395Z,63.00
2023-04-07T04:35:43.203Z,63.00
2023-04-07T04:37:45.935Z,62.90
2023-04-07T04:39:48.790Z,62.90
2023-04-07T04:41:51.837Z,63.00
2023-04-07T04:43:54.624Z,62.70
2023-04-07T04:45:57.727Z,62.70
2023-04-07T04:48:01.907Z,62.60
2023-04-07T04:50:05.045Z,62.60
2023-04-07T04:52:08.096Z,62.70
2023-04-07T04:54:10.796Z,62.80
2023-04-07T04:56:13.634Z,62.90
2023-04-07T04:58:16.476Z,62.90
2023-04-07T05:00:19.988Z,62.90
2023-04-07T05:02:23.035Z,63.20
2023-04-07T05:04:28.380Z,63.20
2023-04-07T05:06:31.307Z,63.20
2023-04-07T05:08:34.333Z,63.20
2023-04-07T05:10:40.163Z,63.00
2023-04-07T05:12:42.917Z,62.90
2023-04-07T05:14:45.719Z,62.80
2023-04-07T05:16:48.583Z,62.70
2023-04-07T05:18:51.353Z,62.70
2023-04-07T05:20:55.471Z,62.70
2023-04-07T05:22:58.167Z,62.80
2023-04-07T05:25:01.136Z,62.80
2023-04-07T05:27:03.989Z,62.70
2023-04-07T05:29:06.733Z,62.70
2023-04-07T05:31:09.532Z,63.30
2023-04-07T05:33:12.841Z,62.70
2023-04-07T05:35:16.108Z,62.80
2023-04-07T05:37:20.428Z,62.90
2023-04-07T05:39:23.252Z,63.10
2023-04-07T05:41:26.078Z,63.20
2023-04-07T05:43:28.865Z,63.30
2023-04-07T05:45:31.655Z,63.40
2023-04-07T05:47:34.545Z,63.50
2023-04-07T05:49:37.402Z,63.50
2023-04-07T05:51:40.197Z,63.50
2023-04-07T05:53:44.315Z,64.10
2023-04-07T05:55:47.049Z,63.40
2023-04-07T05:57:49.834Z,63.30
2023-04-07T05:59:52.648Z,63.20
2023-04-07T06:01:55.437Z,63.40
2023-04-07T06:03:59.025Z,63.40
2023-04-07T06:06:01.865Z,63.30
2023-04-07T06:08:04.607Z,63.20
2023-04-07T06:10:10.118Z,63.50
2023-04-07T06:12:13.431Z,63.50
2023-04-07T06:14:16.307Z,63.60
2023-04-07T06:16:19.753Z,63.70
2023-04-07T06:18:22.718Z,63.50
2023-04-07T06:20:27.678Z,63.70
2023-04-07T06:22:30.496Z,63.50
2023-04-07T06:24:33.248Z,63.30
2023-04-07T06:26:37.528Z,63.30
2023-04-07T06:28:41.102Z,63.30
2023-04-07T06:30:43.899Z,63.10
2023-04-07T06:32:46.928Z,62.90
2023-04-07T06:34:49.741Z,62.80
2023-04-07T06:36:52.715Z,62.70
2023-04-07T06:38:56.179Z,62.70
2023-04-07T06:40:59.101Z,62.60
2023-04-07T06:43:04.015Z,62.50
2023-04-07T06:45:07.861Z,62.50
2023-04-07T06:47:10.582Z,62.40
2023-04-07T06:49:13.348Z,62.20
2023-04-07T06:51:16.225Z,62.30
2023-04-07T06:53:19.482Z,62.30
2023-04-07T06:55:22.648Z,62.30
2023-04-07T06:57:25.531Z,62.20
2023-04-07T06:59:29.786Z,62.20
2023-04-07T07:01:32.610Z,62.20
2023-04-07T07:03:35.553Z,62.30
2023-04-07T07:05:39.023Z,62.40
2023-04-07T07:07:41.749Z,62.50
2023-04-07T07:09:44.613Z,62.40
2023-04-07T07:11:47.629Z,62.10
2023-04-07T07:13:50.606Z,61.70
2023-04-07T07:15:55.398Z,61.80
2023-04-07T07:17:58.196Z,62.10
2023-04-07T07:20:00.921Z,60.80
2023-04-07T07:22:05.064Z,60.40
2023-04-07T07:24:08.317Z,60.50
2023-04-07T07:26:11.242Z,60.40
2023-04-07T07:28:14.323Z,60.30
2023-04-07T07:30:17.038Z,60.50
2023-04-07T07:32:21.231Z,61.00
2023-04-07T07:34:24.050Z,61.00
2023-04-07T07:36:27.517Z,60.90
2023-04-07T07:38:30.306Z,60.70
2023-04-07T07:40:33.113Z,60.50
2023-04-07T07:42:35.943Z,61.30
2023-04-07T07:44:38.661Z,61.60
2023-04-07T07:46:41.544Z,61.70
2023-04-07T07:48:46.566Z,61.40
2023-04-07T07:50:49.322Z,61.60
2023-04-07T07:52:52.107Z,61.70
2023-04-07T07:54:54.833Z,61.20
2023-04-07T07:56:57.576Z,61.30
2023-04-07T07:59:00.308Z,61.00
2023-04-07T08:01:03.245Z,60.50
2023-04-07T08:03:06.212Z,60.30
2023-04-07T08:05:11.317Z,60.50
2023-04-07T08:07:14.207Z,60.40
2023-04-07T08:09:17.159Z,60.30
2023-04-07T08:11:19.923Z,59.70
2023-04-07T08:13:23.945Z,59.20
2023-04-07T08:15:27.130Z,58.60
2023-04-07T08:17:30.244Z,57.20
2023-04-07T08:19:33.322Z,57.50
2023-04-07T08:21:37.675Z,57.80
2023-04-07T08:23:40.577Z,58.60
2023-04-07T08:25:43.380Z,58.90
2023-04-07T08:27:46.215Z,58.50
2023-04-07T08:30:00.737Z,58.80
2023-04-07T08:32:03.463Z,58.70
2023-04-07T08:34:06.796Z,58.10
2023-04-07T08:36:09.635Z,58.50
2023-04-07T08:38:13.793Z,57.80
2023-04-07T08:40:16.945Z,57.80
2023-04-07T08:42:21.070Z,57.00
2023-04-07T08:44:24.371Z,57.10
2023-04-07T08:46:27.814Z,57.20
2023-04-07T08:48:33.955Z,57.00
2023-04-07T08:50:37.478Z,57.00
2023-04-07T08:52:45.137Z,57.10
2023-04-07T08:54:49.741Z,57.00
2023-04-07T08:56:52.951Z,56.70
2023-04-07T08:58:56.389Z,56.70
2023-04-07T09:00:59.667Z,56.70
2023-04-07T09:03:03.603Z,56.30
2023-04-07T09:05:08.806Z,56.50
2023-04-07T09:07:11.567Z,56.00
2023-04-07T09:09:15.508Z,55.30
2023-04-07T09:11:19.640Z,54.80
2023-04-07T09:13:22.381Z,54.80
2023-04-07T09:15:25.581Z,54.90
2023-04-07T09:17:28.966Z,55.20
2023-04-07T09:19:32.035Z,55.20
2023-04-07T09:21:49.570Z,55.20
2023-04-07T09:23:52.316Z,54.60
2023-04-07T09:25:55.062Z,54.50
2023-04-07T09:28:01.337Z,54.40
2023-04-07T09:30:16.342Z,53.90
2023-04-07T09:32:37.233Z,53.80
2023-04-07T09:34:41.506Z,53.10
2023-04-07T09:36:44.234Z,52.60
2023-04-07T09:38:48.430Z,53.00
2023-04-07T09:40:51.221Z,53.40
2023-04-07T09:42:54.520Z,52.80
2023-04-07T09:44:58.807Z,53.00
2023-04-07T09:47:01.638Z,53.10
2023-04-07T09:49:06.071Z,52.60
2023-04-07T09:51:10.271Z,52.40
2023-04-07T09:53:13.024Z,53.00
2023-04-07T09:55:16.832Z,52.80
2023-04-07T09:57:21.849Z,52.30
2023-04-07T09:59:24.773Z,52.30
2023-04-07T10:01:29.108Z,52.00
2023-04-07T10:03:33.958Z,52.10
2023-04-07T10:05:37.264Z,52.10
2023-04-07T10:07:42.450Z,52.60
2023-04-07T10:09:45.489Z,50.70
2023-04-07T10:11:49.539Z,50.90
2023-04-07T10:13:52.554Z,51.20
2023-04-07T10:15:56.261Z,50.10
2023-04-07T10:18:01.305Z,50.40
2023-04-07T10:20:08.013Z,50.60
2023-04-07T10:22:11.149Z,50.60
2023-04-07T10:24:27.146Z,49.60
2023-04-07T10:26:33.469Z,49.50
2023-04-07T10:28:42.168Z,49.40
2023-04-07T10:30:45.520Z,49.10
2023-04-07T10:32:49.111Z,49.50
2023-04-07T10:35:01.213Z,49.20
2023-04-07T10:37:13.596Z,48.20
2023-04-07T10:39:23.576Z,48.80
2023-04-07T10:41:36.765Z,48.70
2023-04-07T10:43:41.942Z,48.40
2023-04-07T10:45:59.912Z,48.50
2023-04-07T10:48:13.235Z,47.90
2023-04-07T10:50:20.006Z,47.80
2023-04-07T10:52:24.111Z,48.60
2023-04-07T10:54:29.275Z,48.70
2023-04-07T10:57:05.716Z,49.00
2023-04-07T10:59:16.193Z,47.30
2023-04-07T11:01:23.371Z,47.60
2023-04-07T11:03:26.761Z,48.20
2023-04-07T11:05:31.043Z,48.30
2023-04-07T11:07:51.625Z,48.60
2023-04-07T11:10:12.612Z,48.50
2023-04-07T11:12:24.338Z,47.20
2023-04-07T11:14:28.219Z,47.30
2023-04-07T11:16:38.313Z,47.40
2023-04-07T11:18:44.851Z,47.80
2023-04-07T11:20:52.631Z,47.90
2023-04-07T11:23:01.120Z,47.80
2023-04-07T11:25:04.045Z,46.50
2023-04-07T11:27:07.287Z,47.20
2023-04-07T11:29:11.740Z,47.70
2023-04-07T11:31:22.966Z,46.40
2023-04-07T11:33:28.002Z,46.70
2023-04-07T11:35:30.955Z,47.00
2023-04-07T11:37:35.436Z,47.00
2023-04-07T11:39:38.695Z,46.90
2023-04-07T11:41:47.612Z,47.10
2023-04-07T11:43:50.993Z,46.00
2023-04-07T11:46:08.455Z,45.80
2023-04-07T11:48:30.701Z,46.80
2023-04-07T11:50:41.172Z,45.60
2023-04-07T11:52:46.799Z,46.50
2023-04-07T11:54:50.723Z,46.00
2023-04-07T11:56:55.563Z,45.90
2023-04-07T11:58:59.119Z,45.30
2023-04-07T12:01:08.746Z,46.50
2023-04-07T12:03:14.485Z,46.10
2023-04-07T12:05:17.912Z,46.10
2023-04-07T12:07:20.919Z,46.30
2023-04-07T12:09:30.518Z,46.40
2023-04-07T12:11:33.831Z,46.60
2023-04-07T12:13:40.514Z,45.40
2023-04-07T12:15:43.697Z,45.50
2023-04-07T12:17:47.867Z,46.30
2023-04-07T12:19:51.502Z,45.30
2023-04-07T12:21:54.343Z,45.60
2023-04-07T12:23:58.731Z,45.00
2023-04-07T12:26:03.344Z,45.60
2023-04-07T12:28:06.788Z,45.70
2023-04-07T12:30:10.181Z,45.20
2023-04-07T12:32:13.310Z,44.90
2023-04-07T12:34:16.352Z,44.70
2023-04-07T12:36:19.036Z,44.40
2023-04-07T12:38:22.055Z,44.90
2023-04-07T12:40:24.910Z,44.80
2023-04-07T12:42:28.921Z,44.00
2023-04-07T12:44:31.637Z,44.00
2023-04-07T12:46:34.612Z,42.70
2023-04-07T12:48:37.435Z,43.70
2023-04-07T12:50:40.417Z,43.00
2023-04-07T12:52:43.119Z,43.70
2023-04-07T12:54:45.858Z,42.60
2023-04-07T12:56:48.741Z,43.40
2023-04-07T12:58:53.376Z,43.70
2023-04-07T13:00:56.651Z,43.50
2023-04-07T13:02:59.625Z,43.40
2023-04-07T13:05:02.400Z,43.70
2023-04-07T13:07:05.145Z,44.10
2023-04-07T13:09:07.871Z,44.10
2023-04-07T13:11:10.629Z,43.50
2023-04-07T13:13:13.304Z,43.90
2023-04-07T13:15:17.562Z,44.10
2023-04-07T13:17:20.357Z,43.60
2023-04-07T13:19:23.202Z,44.20
2023-04-07T13:23:42.090Z,42.80
2023-04-07T13:25:46.207Z,42.90
2023-04-07T13:27:48.939Z,41.80
2023-04-07T13:29:51.753Z,42.50
2023-04-07T13:32:06.176Z,42.80
2023-04-07T13:34:09.201Z,42.50
2023-04-07T13:36:11.953Z,40.20
2023-04-07T13:38:14.789Z,40.70
2023-04-07T13:40:17.766Z,41.60
2023-04-07T13:42:20.965Z,42.40
2023-04-07T13:44:23.862Z,42.30
2023-04-07T13:46:28.868Z,42.20
2023-04-07T13:48:33.665Z,42.50
2023-04-07T13:50:37.771Z,42.20
2023-04-07T13:52:40.472Z,42.10
2023-04-07T13:54:43.992Z,41.70
2023-04-07T13:56:48.142Z,41.90
2023-04-07T13:58:51.848Z,42.40
2023-04-07T14:00:54.654Z,42.20
2023-04-07T14:02:57.456Z,41.40
2023-04-07T14:05:01.617Z,42.30
2023-04-07T14:07:04.676Z,41.50
2023-04-07T14:09:07.407Z,41.40
2023-04-07T14:11:10.070Z,41.80
2023-04-07T14:13:12.787Z,41.70
2023-04-07T14:15:17.664Z,41.30
2023-04-07T14:17:21.249Z,41.60
2023-04-07T14:19:24.497Z,41.60
2023-04-07T14:21:28.600Z,41.30
2023-04-07T14:23:37.392Z,41.10
2023-04-07T14:25:41.045Z,40.40
2023-04-07T14:27:43.774Z,40.70
2023-04-07T14:29:46.748Z,41.10
2023-04-07T14:31:49.643Z,40.30
2023-04-07T14:33:52.792Z,40.30
2023-04-07T14:35:55.560Z,40.50
2023-04-07T14:37:59.711Z,39.70
2023-04-07T14:40:03.447Z,39.50
2023-04-07T14:42:07.458Z,39.70
2023-04-07T14:44:10.526Z,39.70
2023-04-07T14:46:14.834Z,40.20
2023-04-07T14:48:18.531Z,39.50
2023-04-07T14:50:21.483Z,39.80
2023-04-07T14:52:24.402Z,39.10
2023-04-07T14:54:28.615Z,39.60
2023-04-07T14:56:31.459Z,40.10
2023-04-07T14:58:37.182Z,39.40
2023-04-07T15:00:40.013Z,39.60
2023-04-07T15:02:42.865Z,39.00
2023-04-07T15:04:45.834Z,39.60
2023-04-07T15:06:48.604Z,39.80
2023-04-07T15:08:51.383Z,39.80
2023-04-07T15:10:55.421Z,40.10
2023-04-07T15:12:58.132Z,39.50
2023-04-07T15:15:00.862Z,39.10
2023-04-07T15:17:03.563Z,39.70
2023-04-07T15:19:06.312Z,39.80
2023-04-07T15:21:09.396Z,40.10
2023-04-07T15:23:14.637Z,39.60
2023-04-07T15:25:17.534Z,39.40
2023-04-07T15:27:21.574Z,39.30
2023-04-07T15:29:24.262Z,39.40
2023-04-07T15:31:28.491Z,39.50
2023-04-07T15:33:31.709Z,39.50
2023-04-07T15:35:34.570Z,39.40
2023-04-07T15:37:38.441Z,39.50
2023-04-07T15:39:41.224Z,39.80
2023-04-07T15:41:43.935Z,39.80
2023-04-07T15:43:48.265Z,39.30
2023-04-07T15:45:51.338Z,39.50
2023-04-07T15:47:54.586Z,39.30
2023-04-07T15:49:57.380Z,38.90
2023-04-07T15:52:01.090Z,39.40
2023-04-07T15:54:03.909Z,39.20
2023-04-07T15:56:07.162Z,39.30
2023-04-07T15:58:10.561Z,39.40
2023-04-07T16:00:15.478Z,39.80
2023-04-07T16:02:18.298Z,39.70
2023-04-07T16:04:21.195Z,40.60
2023-04-07T16:06:24.089Z,40.10
2023-04-07T16:08:26.886Z,40.30
2023-04-07T16:10:29.944Z,40.20
2023-04-07T16:12:34.310Z,40.40
2023-04-07T16:14:37.091Z,40.50
2023-04-07T16:16:43.584Z,40.40
2023-04-07T16:18:46.488Z,41.00
2023-04-07T16:20:49.307Z,40.40
2023-04-07T16:22:52.007Z,41.00
2023-04-07T16:24:54.918Z,41.00
2023-04-07T16:26:57.665Z,41.00
2023-04-07T16:29:00.561Z,41.30
2023-04-07T16:31:05.919Z,41.60
2023-04-07T16:33:10.054Z,41.50
2023-04-07T16:35:13.314Z,41.20
2023-04-07T16:37:16.249Z,41.60
2023-04-07T16:39:19.085Z,41.80
2023-04-07T16:41:21.814Z,41.50
2023-04-07T16:43:25.436Z,41.60
2023-04-07T16:45:28.141Z,41.90
2023-04-07T16:47:31.961Z,42.00
2023-04-07T16:49:36.119Z,41.80
2023-04-07T16:51:38.827Z,42.10
2023-04-07T16:53:41.526Z,42.00
2023-04-07T16:55:44.185Z,42.20
2023-04-07T16:57:46.950Z,42.10
2023-04-07T16:59:49.754Z,42.20
2023-04-07T17:01:52.569Z,42.50
2023-04-07T17:03:55.999Z,42.80
2023-04-07T17:06:04.947Z,42.80
2023-04-07T17:08:07.724Z,43.00
2023-04-07T17:10:11.154Z,43.30
2023-04-07T17:12:14.297Z,43.20
2023-04-07T17:14:17.011Z,43.40
2023-04-07T17:16:19.754Z,43.30
2023-04-07T17:18:22.506Z,43.00
2023-04-07T17:20:25.448Z,43.40
2023-04-07T17:22:29.493Z,43.50
2023-04-07T17:24:32.205Z,43.20
2023-04-07T17:26:35.078Z,43.20
2023-04-07T17:28:37.788Z,43.10
2023-04-07T17:30:41.443Z,43.40
2023-04-07T17:32:44.257Z,43.50
2023-04-07T17:34:47.007Z,43.50
2023-04-07T17:36:50.114Z,43.80
2023-04-07T17:38:54.192Z,43.70
2023-04-07T17:40:58.594Z,43.90
2023-04-07T17:43:01.392Z,43.90
2023-04-07T17:45:04.266Z,43.80
2023-04-07T17:47:06.960Z,43.90
2023-04-07T17:49:10.008Z,44.20
2023-04-07T17:51:13.973Z,44.10
2023-04-07T17:53:17.023Z,44.20
2023-04-07T17:55:21.093Z,44.20
2023-04-07T17:57:24.100Z,44.40
2023-04-07T17:59:26.814Z,44.40
2023-04-07T18:01:29.637Z,44.60
2023-04-07T18:03:32.646Z,44.70
2023-04-07T18:05:37.644Z,44.70
2023-04-07T18:07:40.388Z,44.80
2023-04-07T18:09:44.915Z,44.80
2023-04-07T18:11:48.950Z,45.00
2023-04-07T18:13:52.121Z,45.00
2023-04-07T18:15:54.835Z,45.20
2023-04-07T18:17:57.665Z,45.30
2023-04-07T18:20:00.833Z,45.40
2023-04-07T18:22:03.533Z,45.60
2023-04-07T18:24:06.306Z,45.70
2023-04-07T18:26:09.035Z,45.90
2023-04-07T18:28:13.083Z,46.00
2023-04-07T18:30:16.236Z,46.10
2023-04-07T18:32:18.933Z,46.20
2023-04-07T18:34:21.657Z,46.30
2023-04-07T18:36:27.295Z,46.70
2023-04-07T18:38:30.091Z,47.10
2023-04-07T18:40:34.267Z,46.90
2023-04-07T18:42:36.964Z,47.10
2023-04-07T18:44:40.961Z,47.10
2023-04-07T18:46:43.766Z,47.40
2023-04-07T18:48:46.519Z,47.30
2023-04-07T18:50:53.050Z,47.50
2023-04-07T18:52:55.737Z,47.60
2023-04-07T18:54:58.937Z,47.40
2023-04-07T18:57:02.519Z,47.40
2023-04-07T18:59:07.170Z,47.70
2023-04-07T19:01:11.621Z,47.70
2023-04-07T19:03:14.669Z,47.80
2023-04-07T19:05:20.612Z,48.00
2023-04-07T19:07:24.678Z,47.90
2023-04-07T19:09:27.490Z,48.00
2023-04-07T19:11:30.724Z,48.10
2023-04-07T19:13:33.634Z,48.30
2023-04-07T19:15:38.407Z,48.70
2023-04-07T19:17:43.084Z,49.50
2023-04-07T19:19:45.997Z,49.50
2023-04-07T19:21:48.699Z,49.70
2023-04-07T19:23:52.653Z,49.80
2023-04-07T19:25:55.564Z,49.80
2023-04-07T19:27:59.007Z,50.20
2023-04-07T19:30:01.810Z,50.30
2023-04-07T19:32:04.701Z,51.10
2023-04-07T19:34:08.828Z,50.90
2023-04-07T19:36:18.384Z,50.90
2023-04-07T19:38:21.190Z,50.70
2023-04-07T19:40:24.602Z,50.90
2023-04-07T19:42:29.212Z,50.90
2023-04-07T19:44:32.005Z,51.40
2023-04-07T19:46:34.754Z,52.20
2023-04-07T19:48:37.672Z,52.80
2023-04-07T19:50:43.764Z,52.30
2023-04-07T19:52:47.314Z,52.10
2023-04-07T19:54:50.177Z,51.80
2023-04-07T19:56:52.915Z,51.60
2023-04-07T19:58:55.797Z,51.80
2023-04-07T20:00:58.605Z,51.60
2023-04-07T20:03:01.483Z,51.40
2023-04-07T20:05:04.817Z,51.20
2023-04-07T20:07:08.857Z,51.10
2023-04-07T20:09:11.585Z,50.90
2023-04-07T20:11:14.921Z,51.20
2023-04-07T20:13:17.674Z,51.50
2023-04-07T20:15:21.204Z,51.00
2023-04-07T20:17:24.006Z,50.90
2023-04-07T20:19:26.693Z,50.80
2023-04-07T20:21:29.798Z,50.80
2023-04-07T20:23:34.444Z,50.60
2023-04-07T20:25:45.705Z,50.80
2023-04-07T20:27:49.940Z,50.80
2023-04-07T20:29:52.682Z,51.30
2023-04-07T20:31:55.632Z,50.70
2023-04-07T20:33:59.922Z,50.80
2023-04-07T20:36:02.659Z,50.70
2023-04-07T20:38:05.420Z,50.80
2023-04-07T20:40:09.848Z,50.90
2023-04-07T20:42:14.049Z,50.90
2023-04-07T20:44:16.905Z,51.00
2023-04-07T20:46:20.178Z,51.00
2023-04-07T20:48:23.984Z,51.00
2023-04-07T20:50:26.931Z,50.90
2023-04-07T20:52:29.681Z,50.90
2023-04-07T20:54:32.482Z,50.90
2023-04-07T20:56:35.567Z,50.70
2023-04-07T20:58:39.778Z,50.70
2023-04-07T21:00:42.551Z,50.50
2023-04-07T21:02:45.555Z,50.50
2023-04-07T21:04:48.350Z,50.40
2023-04-07T21:06:51.078Z,50.80
2023-04-07T21:08:53.800Z,50.90
2023-04-07T21:10:56.583Z,51.00
2023-04-07T21:13:02.470Z,51.10
2023-04-07T21:15:07.593Z,51.40
2023-04-07T21:17:10.407Z,51.50
2023-04-07T21:19:13.186Z,51.70
2023-04-07T21:21:15.995Z,51.60
2023-04-07T21:23:19.363Z,52.70
2023-04-07T21:25:22.316Z,51.90
2023-04-07T21:27:25.055Z,53.00
2023-04-07T21:29:30.940Z,53.10
2023-04-07T21:31:35.111Z,53.20
2023-04-07T21:33:39.183Z,53.20
2023-04-07T21:35:42.014Z,53.30
2023-04-07T21:37:44.763Z,53.60
2023-04-07T21:39:47.504Z,53.90
2023-04-07T21:41:58.543Z,53.90
2023-04-07T21:44:01.515Z,54.00
2023-04-07T21:46:04.261Z,54.10
2023-04-07T21:48:08.693Z,54.20
2023-04-07T21:50:12.539Z,54.50
2023-04-07T21:52:17.330Z,55.00
2023-04-07T21:54:20.062Z,54.90
2023-04-07T21:56:23.073Z,55.00
2023-04-07T21:58:27.010Z,55.00
2023-04-07T22:00:29.765Z,54.90
2023-04-07T22:02:32.640Z,54.80
2023-04-07T22:04:37.350Z,55.30
2023-04-07T22:06:40.203Z,55.80
2023-04-07T22:08:48.879Z,55.60
2023-04-07T22:11:03.144Z,55.70
2023-04-07T22:13:06.234Z,55.60
2023-04-07T22:15:13.054Z,55.50
2023-04-07T22:17:16.580Z,55.60
2023-04-07T22:19:19.676Z,55.50
2023-04-07T22:21:23.738Z,55.60
2023-04-07T22:23:26.512Z,55.70
2023-04-07T22:25:29.409Z,55.70
2023-04-07T22:27:39.016Z,55.70
2023-04-07T22:29:41.809Z,55.90
2023-04-07T22:31:44.604Z,56.10
2023-04-07T22:33:47.465Z,55.80
2023-04-07T22:35:52.425Z,55.90
2023-04-07T22:37:56.523Z,56.00
2023-04-07T22:39:59.276Z,55.90
2023-04-07T22:42:02.693Z,55.80
2023-04-07T22:44:07.044Z,55.70
2023-04-07T22:46:09.747Z,55.60
2023-04-07T22:48:12.600Z,55.60
2023-04-07T22:50:15.688Z,55.50
2023-04-07T22:52:18.427Z,55.60
2023-04-07T22:54:22.478Z,55.50
2023-04-07T22:56:27.158Z,55.50
2023-04-07T22:58:29.928Z,55.60
2023-04-07T23:00:33.547Z,55.80
2023-04-07T23:02:36.569Z,55.70
2023-04-07T23:04:39.411Z,55.80
2023-04-07T23:06:43.510Z,55.80
2023-04-07T23:08:46.632Z,55.80
2023-04-07T23:10:50.717Z,55.80
2023-04-07T23:12:54.010Z,55.80
2023-04-07T23:14:56.766Z,55.80
2023-04-07T23:17:00.920Z,55.80
2023-04-07T23:19:03.669Z,55.80
2023-04-07T23:21:06.837Z,55.90
2023-04-07T23:23:09.545Z,55.60
2023-04-07T23:25:12.305Z,55.00
2023-04-07T23:27:16.641Z,55.10
2023-04-07T23:29:19.807Z,55.00
2023-04-07T23:31:22.560Z,55.00
2023-04-07T23:33:25.339Z,54.90
2023-04-07T23:35:28.135Z,54.80
2023-04-07T23:37:31.054Z,54.90
2023-04-07T23:39:34.321Z,55.10
2023-04-07T23:41:37.095Z,55.10
2023-04-07T23:43:41.133Z,55.00
2023-04-07T23:45:43.983Z,55.20
2023-04-07T23:47:47.329Z,55.20
2023-04-07T23:49:50.074Z,55.10
2023-04-07T23:51:53.184Z,55.10
2023-04-07T23:53:55.918Z,55.10
2023-04-07T23:55:59.857Z,55.10
2023-04-07T23:58:02.602Z,55.50
